createdAt,value
2018-06-03T16:32:52.617Z,23.70
2018-06-03T16:35:21.756Z,23.70
2018-06-03T16:37:50.228Z,23.70
2018-06-03T16:40:18.714Z,23.80
2018-06-03T16:42:47.174Z,23.80
2018-06-03T16:45:15.829Z,23.70
2018-06-03T16:47:44.450Z,23.60
2018-06-03T16:50:12.868Z,23.70
2018-06-03T16:52:41.463Z,23.50
2018-06-03T16:55:09.980Z,23.30
2018-06-03T16:57:39.009Z,23.10
2018-06-03T17:00:07.424Z,23.10
2018-06-03T17:02:35.930Z,23.20
2018-06-03T17:05:04.469Z,23.20
2018-06-03T17:07:33.185Z,23.10
2018-06-03T17:10:01.626Z,23.10
2018-06-03T17:12:30.246Z,22.90
2018-06-03T17:14:59.729Z,22.90
2018-06-03T17:17:28.363Z,22.90
2018-06-03T17:19:56.991Z,22.80
2018-06-03T17:22:25.430Z,22.80
2018-06-03T17:24:53.922Z,22.80
2018-06-03T17:27:23.963Z,22.80
2018-06-03T17:29:52.450Z,22.80
2018-06-03T17:32:20.948Z,22.80
2018-06-03T17:34:49.489Z,22.80
2018-06-03T17:37:17.925Z,22.70
2018-06-03T17:39:46.412Z,22.70
2018-06-03T17:42:14.820Z,22.70
2018-06-03T17:44:43.451Z,22.70
2018-06-03T17:47:11.837Z,22.80
2018-06-03T17:49:40.329Z,22.80
2018-06-03T17:52:08.735Z,22.80
2018-06-03T17:54:37.316Z,22.80
2018-06-03T17:57:05.669Z,22.80
2018-06-03T17:59:34.032Z,22.70
2018-06-03T18:02:02.808Z,22.60
2018-06-03T18:04:31.439Z,22.60
2018-06-03T18:07:04.207Z,22.60
2018-06-03T18:09:32.643Z,22.60
2018-06-03T18:12:01.525Z,22.40
2018-06-03T18:14:30.017Z,22.40
2018-06-03T18:16:58.536Z,22.40
2018-06-03T18:19:27.723Z,22.30
2018-06-03T18:21:57.019Z,22.30
2018-06-03T18:24:25.619Z,22.20
2018-06-03T18:26:55.128Z,22.20
2018-06-03T18:29:23.577Z,22.20
2018-06-03T18:31:52.875Z,22.10
2018-06-03T18:34:21.245Z,22.10
2018-06-03T18:36:50.227Z,22.10
2018-06-03T18:39:18.965Z,22.10
2018-06-03T18:41:48.943Z,22.00
2018-06-03T18:44:19.904Z,22.00
2018-06-03T18:46:48.269Z,21.90
2018-06-03T18:49:16.929Z,21.90
2018-06-03T18:51:45.314Z,21.90
2018-06-03T18:54:13.747Z,21.80
2018-06-03T18:56:42.324Z,21.80
2018-06-03T18:59:10.920Z,21.70
2018-06-03T19:01:39.272Z,21.70
2018-06-03T19:04:07.756Z,21.60
2018-06-03T19:06:36.309Z,21.60
2018-06-03T19:09:06.788Z,21.50
2018-06-03T19:11:35.561Z,21.50
2018-06-03T19:14:04.086Z,21.40
2018-06-03T19:16:32.699Z,21.30
2018-06-03T19:19:02.993Z,21.30
2018-06-03T19:21:31.510Z,21.20
2018-06-03T19:23:59.882Z,21.20
2018-06-03T19:26:28.357Z,21.20
2018-06-03T19:28:58.462Z,21.00
2018-06-03T19:31:26.979Z,21.10
2018-06-03T19:33:55.458Z,21.00
2018-06-03T19:36:23.989Z,20.90
2018-06-03T19:38:52.365Z,20.80
2018-06-03T19:41:20.919Z,20.70
2018-06-03T19:43:49.487Z,20.70
2018-06-03T19:46:17.912Z,20.70
2018-06-03T19:48:46.268Z,20.60
2018-06-03T19:51:15.183Z,20.50
2018-06-03T19:53:46.655Z,20.40
2018-06-03T19:56:15.460Z,20.40
2018-06-03T20:01:14.257Z,20.30
2018-06-03T20:03:42.798Z,20.10
2018-06-03T20:06:11.436Z,20.00
2018-06-03T20:08:51.290Z,20.00
2018-06-03T20:11:20.585Z,20.00
2018-06-03T20:13:49.074Z,19.90
2018-06-03T20:16:17.772Z,19.80
2018-06-03T20:18:46.102Z,19.70
2018-06-03T20:21:14.664Z,19.60
2018-06-03T20:23:43.126Z,19.50
2018-06-03T20:26:11.856Z,19.40
2018-06-03T20:28:40.934Z,19.40
2018-06-03T20:31:09.466Z,19.50
2018-06-03T20:33:38.189Z,19.40
2018-06-03T20:36:07.755Z,19.40
2018-06-03T20:38:36.496Z,19.30
2018-06-03T20:41:06.801Z,19.40
2018-06-03T20:43:35.362Z,19.40
2018-06-03T20:46:04.009Z,19.40
2018-06-03T20:48:32.530Z,19.30
2018-06-03T20:51:01.008Z,19.30
2018-06-03T20:53:29.633Z,19.30
2018-06-03T20:55:58.057Z,19.20
2018-06-03T20:58:26.578Z,19.10
2018-06-03T21:00:55.544Z,19.00
2018-06-03T21:03:24.124Z,18.90
2018-06-03T21:05:52.517Z,18.80
2018-06-03T21:10:49.268Z,18.60
2018-06-03T21:15:48.995Z,18.40
2018-06-03T21:18:17.507Z,18.30
2018-06-03T21:20:46.373Z,18.20
2018-06-03T21:23:15.695Z,18.20
2018-06-03T21:25:45.360Z,18.20
2018-06-03T21:28:13.836Z,18.40
2018-06-03T21:30:42.314Z,18.40
2018-06-03T21:33:11.502Z,18.50
2018-06-03T21:35:40.514Z,18.40
2018-06-03T21:38:09.037Z,18.40
2018-06-03T21:40:37.455Z,18.40
2018-06-03T21:43:06.270Z,18.40
2018-06-03T21:45:34.922Z,18.30
2018-06-03T21:48:04.311Z,18.30
2018-06-03T21:50:33.187Z,18.30
2018-06-03T21:53:03.989Z,18.30
2018-06-03T21:55:32.696Z,18.20
2018-06-03T21:58:01.280Z,18.20
2018-06-03T22:00:30.603Z,18.10
2018-06-03T22:02:59.880Z,18.10
2018-06-03T22:05:28.322Z,18.10
2018-06-03T22:07:57.485Z,18.00
2018-06-03T22:10:26.090Z,17.80
2018-06-03T22:12:54.821Z,17.70
2018-06-03T22:20:19.915Z,17.60
2018-06-03T22:22:48.424Z,17.60
2018-06-03T22:25:17.593Z,17.70
2018-06-03T22:27:45.937Z,17.60
2018-06-03T22:30:14.806Z,17.60
2018-06-03T22:32:43.476Z,17.50
2018-06-03T22:35:12.464Z,17.50
2018-06-03T22:37:43.078Z,17.40
2018-06-03T22:40:11.441Z,17.60
2018-06-03T22:42:39.874Z,17.60
2018-06-03T22:45:09.577Z,17.50
2018-06-03T22:47:38.757Z,17.40
2018-06-03T22:50:07.441Z,17.40
2018-06-03T22:52:35.973Z,17.40
2018-06-03T22:55:04.442Z,17.30
2018-06-03T22:57:42.314Z,17.30
2018-06-03T23:00:12.348Z,17.30
2018-06-03T23:02:44.891Z,17.30
2018-06-03T23:05:13.369Z,17.30
2018-06-03T23:07:42.061Z,17.30
2018-06-03T23:10:11.182Z,17.30
2018-06-03T23:12:40.424Z,17.20
2018-06-03T23:15:08.865Z,17.20
2018-06-03T23:17:37.319Z,17.10
2018-06-03T23:20:05.846Z,17.20
2018-06-03T23:22:34.903Z,17.20
2018-06-03T23:25:03.291Z,17.20
2018-06-03T23:27:31.942Z,17.20
2018-06-03T23:30:01.269Z,17.20
2018-06-03T23:32:29.705Z,17.10
2018-06-03T23:34:59.801Z,17.10
2018-06-03T23:37:29.185Z,17.00
2018-06-03T23:39:57.651Z,17.00
2018-06-03T23:42:26.639Z,17.00
2018-06-03T23:44:55.259Z,16.90
2018-06-03T23:47:23.679Z,16.90
2018-06-03T23:49:52.892Z,16.90
2018-06-03T23:52:21.268Z,16.90
2018-06-03T23:54:50.219Z,16.90
2018-06-03T23:57:18.688Z,16.80
2018-06-03T23:59:54.096Z,16.80
